Time;durP1;ratioP1;P1;durP2;ratioP2;P2;SDS_P1;SDS_P2;PMS_P1;PMS_P2;Temp;Humidity;BMP_temperature;BMP_pressure;BME280_temperature;BME280_humidity;BME280_pressure;Samples;Min_cycle;Max_cycle;Signal;HPM_P1;HPM_P2
2022/03/05 00:01:52;;;;;;;;;;;21.70;26.90;;;;;;5076634;28;19981;-56
2022/03/05 00:04:18;;;;;;;;;;;21.70;26.90;;;;;;5078450;28;19966;-53
2022/03/05 00:06:43;;;;;;;;;;;21.70;26.90;;;;;;5072373;28;19959;-51
2022/03/05 00:09:09;;;;;;;;;;;21.70;26.90;;;;;;5077266;28;19908;-51
2022/03/05 00:11:38;;;;;;;;;;;21.70;26.90;;;;;;5076283;28;20286;-49
2022/03/05 00:14:05;;;;;;;;;;;21.70;26.90;;;;;;5076598;28;20255;-53
2022/03/05 00:16:30;;;;;;;;;;;21.70;26.80;;;;;;5073167;28;20221;-53
2022/03/05 00:18:56;;;;;;;;;;;21.70;26.80;;;;;;5058197;28;19962;-49
2022/03/05 00:21:22;;;;;;;;;;;21.70;26.80;;;;;;5060401;28;19920;-57
2022/03/05 00:23:48;;;;;;;;;;;21.70;26.80;;;;;;5076652;28;19916;-54
2022/03/05 00:26:13;;;;;;;;;;;21.70;26.80;;;;;;5076557;28;19920;-55
2022/03/05 00:28:39;;;;;;;;;;;21.70;26.80;;;;;;5076415;28;20386;-53
2022/03/05 00:31:05;;;;;;;;;;;21.70;26.80;;;;;;5076089;28;20018;-53
2022/03/05 00:33:30;;;;;;;;;;;21.70;26.80;;;;;;5076335;28;19909;-49
2022/03/05 00:35:56;;;;;;;;;;;21.70;26.80;;;;;;5076601;28;19909;-55
2022/03/05 00:38:22;;;;;;;;;;;21.70;26.80;;;;;;5073943;28;19958;-46
2022/03/05 00:40:47;;;;;;;;;;;21.70;26.80;;;;;;5072378;28;19909;-49
2022/03/05 00:43:14;;;;;;;;;;;21.70;26.80;;;;;;5071156;28;19913;-51
2022/03/05 00:45:40;;;;;;;;;;;21.60;26.80;;;;;;5066374;28;19913;-58
2022/03/05 00:48:07;;;;;;;;;;;21.60;26.90;;;;;;5067651;28;20209;-54
2022/03/05 00:50:32;;;;;;;;;;;21.60;26.90;;;;;;5075844;28;19915;-53
2022/03/05 00:52:58;;;;;;;;;;;21.70;26.90;;;;;;5075551;28;19908;-54
2022/03/05 00:55:24;;;;;;;;;;;21.60;26.90;;;;;;5068496;28;19909;-52
2022/03/05 00:57:50;;;;;;;;;;;21.70;26.90;;;;;;5057163;28;19932;-55
2022/03/05 01:00:15;;;;;;;;;;;21.60;26.90;;;;;;5056595;28;19995;-56
2022/03/05 01:02:41;;;;;;;;;;;21.60;26.80;;;;;;5068510;28;19916;-55
2022/03/05 01:05:08;;;;;;;;;;;21.60;26.80;;;;;;5070500;28;20204;-57
2022/03/05 01:07:34;;;;;;;;;;;21.60;26.80;;;;;;5064572;28;19936;-51
2022/03/05 01:10:00;;;;;;;;;;;21.60;26.80;;;;;;5071772;28;20397;-56
2022/03/05 01:12:27;;;;;;;;;;;21.60;26.80;;;;;;5066443;28;20236;-51
2022/03/05 01:14:53;;;;;;;;;;;21.60;26.80;;;;;;5073129;28;19913;-52
2022/03/05 01:17:18;;;;;;;;;;;21.60;26.80;;;;;;5061791;28;19970;-54
2022/03/05 01:19:44;;;;;;;;;;;21.60;26.80;;;;;;5074258;28;19909;-53
2022/03/05 01:22:10;;;;;;;;;;;21.60;26.90;;;;;;5063904;28;19908;-48
2022/03/05 01:24:36;;;;;;;;;;;21.60;26.80;;;;;;5075510;28;19973;-49
2022/03/05 01:27:01;;;;;;;;;;;21.50;26.80;;;;;;5059241;28;20008;-53
2022/03/05 01:29:27;;;;;;;;;;;21.60;26.80;;;;;;5076085;28;19957;-57
2022/03/05 01:31:53;;;;;;;;;;;21.60;26.80;;;;;;5073507;28;19920;-50
2022/03/05 01:34:20;;;;;;;;;;;21.50;26.80;;;;;;5076140;28;19970;-52
2022/03/05 01:36:45;;;;;;;;;;;21.50;26.80;;;;;;5058052;28;20247;-54
2022/03/05 01:39:11;;;;;;;;;;;21.50;26.80;;;;;;5075352;28;19908;-53
2022/03/05 01:41:37;;;;;;;;;;;21.50;26.80;;;;;;5061487;28;19908;-56
2022/03/05 01:44:03;;;;;;;;;;;21.50;26.80;;;;;;5075390;28;20362;-49
2022/03/05 01:46:30;;;;;;;;;;;21.50;26.80;;;;;;5059858;28;19952;-53
2022/03/05 01:48:56;;;;;;;;;;;21.50;26.80;;;;;;5074607;28;20328;-52
2022/03/05 01:51:22;;;;;;;;;;;21.50;26.80;;;;;;5062199;28;19912;-49
2022/03/05 01:53:48;;;;;;;;;;;21.50;26.80;;;;;;5074672;28;19936;-51
2022/03/05 01:56:14;;;;;;;;;;;21.50;26.80;;;;;;5061451;28;20005;-49
2022/03/05 01:58:39;;;;;;;;;;;21.50;26.80;;;;;;5070429;28;20243;-53
2022/03/05 02:01:05;;;;;;;;;;;21.40;26.80;;;;;;5074405;28;20031;-50
2022/03/05 02:03:31;;;;;;;;;;;21.40;26.80;;;;;;5072524;28;19916;-50
2022/03/05 02:05:56;;;;;;;;;;;21.40;26.70;;;;;;5063351;28;19999;-54
2022/03/05 02:08:22;;;;;;;;;;;21.40;26.80;;;;;;5060249;28;19909;-49
2022/03/05 02:10:48;;;;;;;;;;;21.50;26.80;;;;;;5070968;28;19917;-47
2022/03/05 02:13:13;;;;;;;;;;;21.40;26.80;;;;;;5062846;28;19919;-53
2022/03/05 02:15:39;;;;;;;;;;;21.40;26.70;;;;;;5054983;28;19920;-57
2022/03/05 02:18:05;;;;;;;;;;;21.40;26.70;;;;;;5067210;28;19948;-51
2022/03/05 02:20:30;;;;;;;;;;;21.40;26.70;;;;;;5075378;28;19919;-52
2022/03/05 02:22:56;;;;;;;;;;;21.40;26.70;;;;;;5073222;28;19913;-55
2022/03/05 02:25:22;;;;;;;;;;;21.40;26.70;;;;;;5074887;28;19919;-53
2022/03/05 02:27:48;;;;;;;;;;;21.40;26.70;;;;;;5073892;28;19918;-56
2022/03/05 02:30:14;;;;;;;;;;;21.40;26.80;;;;;;5071769;28;20235;-53
2022/03/05 02:32:39;;;;;;;;;;;21.40;26.70;;;;;;5064722;28;19908;-54
2022/03/05 02:35:05;;;;;;;;;;;21.40;26.70;;;;;;5072565;28;20016;-52
2022/03/05 02:37:31;;;;;;;;;;;21.40;26.70;;;;;;5062715;28;19908;-50
2022/03/05 02:39:56;;;;;;;;;;;21.40;26.70;;;;;;5073533;28;20110;-54
2022/03/05 02:42:22;;;;;;;;;;;21.40;26.70;;;;;;5062368;28;19956;-50
2022/03/05 02:44:47;;;;;;;;;;;21.40;26.70;;;;;;5071230;28;20339;-52
2022/03/05 02:47:13;;;;;;;;;;;21.40;26.70;;;;;;5073285;28;19972;-46
2022/03/05 02:49:39;;;;;;;;;;;21.40;26.70;;;;;;5072780;28;20069;-51
2022/03/05 02:52:05;;;;;;;;;;;21.30;26.70;;;;;;5062296;28;19908;-53
2022/03/05 02:54:30;;;;;;;;;;;21.30;26.70;;;;;;5074461;28;20283;-50
2022/03/05 02:56:56;;;;;;;;;;;21.30;26.80;;;;;;5062881;28;20327;-49
2022/03/05 02:59:25;;;;;;;;;;;21.30;26.80;;;;;;5074591;28;19919;-49
2022/03/05 03:01:50;;;;;;;;;;;21.30;26.80;;;;;;5072460;28;19935;-48
2022/03/05 03:04:16;;;;;;;;;;;21.30;26.80;;;;;;5074858;28;20319;-52
2022/03/05 03:06:41;;;;;;;;;;;21.30;26.80;;;;;;5062448;28;20395;-55
2022/03/05 03:09:07;;;;;;;;;;;21.30;26.70;;;;;;5066587;28;19920;-46
2022/03/05 03:11:34;;;;;;;;;;;21.30;26.80;;;;;;5058371;28;19909;-50
2022/03/05 03:13:59;;;;;;;;;;;21.30;26.70;;;;;;5074737;28;19916;-51
2022/03/05 03:16:25;;;;;;;;;;;21.30;26.70;;;;;;5073086;28;19912;-50
2022/03/05 03:18:51;;;;;;;;;;;21.30;26.70;;;;;;5054968;28;19917;-54
2022/03/05 03:21:17;;;;;;;;;;;21.30;26.70;;;;;;5072837;28;20045;-55
2022/03/05 03:23:42;;;;;;;;;;;21.30;26.70;;;;;;5073564;28;19912;-50
2022/03/05 03:26:08;;;;;;;;;;;21.30;26.70;;;;;;5074202;28;19912;-50
2022/03/05 03:28:34;;;;;;;;;;;21.30;26.70;;;;;;5074689;28;20340;-52
2022/03/05 03:31:00;;;;;;;;;;;21.30;26.70;;;;;;5077496;28;19920;-55
2022/03/05 03:33:25;;;;;;;;;;;21.30;26.70;;;;;;5062319;28;19970;-53
2022/03/05 03:35:51;;;;;;;;;;;21.20;26.60;;;;;;5061312;28;19920;-50
2022/03/05 03:38:17;;;;;;;;;;;21.30;26.70;;;;;;5058359;28;19921;-54
2022/03/05 03:40:42;;;;;;;;;;;21.20;26.70;;;;;;5073252;28;20238;-50
2022/03/05 03:43:08;;;;;;;;;;;21.20;26.60;;;;;;5063916;28;19917;-57
2022/03/05 03:45:34;;;;;;;;;;;21.20;26.60;;;;;;5072421;28;19966;-54
2022/03/05 03:48:00;;;;;;;;;;;21.20;26.60;;;;;;5075838;28;19908;-53
2022/03/05 03:50:26;;;;;;;;;;;21.20;26.60;;;;;;5078237;28;19909;-57
2022/03/05 03:52:52;;;;;;;;;;;21.20;26.60;;;;;;5076621;28;19905;-51
2022/03/05 03:55:19;;;;;;;;;;;21.20;26.60;;;;;;5077631;28;19911;-53
2022/03/05 03:57:45;;;;;;;;;;;21.20;26.60;;;;;;5075977;28;19927;-53
2022/03/05 04:00:12;;;;;;;;;;;21.20;26.60;;;;;;5077663;28;19909;-55
2022/03/05 04:02:37;;;;;;;;;;;21.20;26.60;;;;;;5076696;28;19912;-54
2022/03/05 04:05:03;;;;;;;;;;;21.20;26.60;;;;;;5077833;28;19924;-54
2022/03/05 04:10:13;;;;;;;;;;;21.10;26.60;;;;;;5077429;28;19927;-50
2022/03/05 04:12:39;;;;;;;;;;;21.20;26.60;;;;;;5076369;28;19908;-54
2022/03/05 04:15:07;;;;;;;;;;;21.10;26.60;;;;;;5077856;28;19909;-53
2022/03/05 04:17:33;;;;;;;;;;;21.10;26.60;;;;;;5072706;28;19908;-51
2022/03/05 04:19:58;;;;;;;;;;;21.10;26.60;;;;;;5077501;28;19908;-53
2022/03/05 04:22:24;;;;;;;;;;;21.10;26.60;;;;;;5076338;28;19912;-53
2022/03/05 04:24:50;;;;;;;;;;;21.10;26.60;;;;;;5070653;28;19912;-53
2022/03/05 04:27:16;;;;;;;;;;;21.10;26.60;;;;;;5064996;28;20370;-51
2022/03/05 04:29:41;;;;;;;;;;;21.10;26.60;;;;;;5076569;28;19986;-49
2022/03/05 04:32:07;;;;;;;;;;;21.10;26.60;;;;;;5076212;28;19909;-53
2022/03/05 04:34:33;;;;;;;;;;;21.10;26.60;;;;;;5076219;28;19916;-53
2022/03/05 04:36:59;;;;;;;;;;;21.10;26.60;;;;;;5075963;28;19919;-46
2022/03/05 04:39:24;;;;;;;;;;;21.10;26.60;;;;;;5075736;28;19961;-51
2022/03/05 04:41:50;;;;;;;;;;;21.10;26.60;;;;;;5061501;28;20252;-51
2022/03/05 04:44:15;;;;;;;;;;;21.10;26.60;;;;;;5060718;28;19920;-53
2022/03/05 04:46:41;;;;;;;;;;;21.10;26.60;;;;;;5072301;28;19913;-54
2022/03/05 04:49:08;;;;;;;;;;;21.10;26.60;;;;;;5074765;28;19908;-53
2022/03/05 04:51:34;;;;;;;;;;;21.10;26.60;;;;;;5065000;28;19967;-52
2022/03/05 04:53:59;;;;;;;;;;;21.10;26.60;;;;;;5076814;28;19920;-53
2022/03/05 04:56:25;;;;;;;;;;;21.10;26.60;;;;;;5064354;28;19924;-52
2022/03/05 04:58:51;;;;;;;;;;;21.10;26.60;;;;;;5070799;28;19927;-53
2022/03/05 05:01:18;;;;;;;;;;;21.00;26.60;;;;;;5074412;28;19908;-54
2022/03/05 05:03:44;;;;;;;;;;;21.00;26.60;;;;;;5062181;28;20318;-54
2022/03/05 05:06:11;;;;;;;;;;;21.00;26.60;;;;;;5065427;28;19908;-56
2022/03/05 05:08:37;;;;;;;;;;;21.00;26.60;;;;;;5074988;28;19935;-54
2022/03/05 05:11:04;;;;;;;;;;;21.00;26.60;;;;;;5075726;28;19908;-53
2022/03/05 05:13:30;;;;;;;;;;;21.00;26.60;;;;;;5063874;28;19970;-49
2022/03/05 05:15:57;;;;;;;;;;;21.00;26.60;;;;;;5063117;28;20362;-55
2022/03/05 05:18:23;;;;;;;;;;;21.00;26.60;;;;;;5075406;28;19908;-54
2022/03/05 05:20:48;;;;;;;;;;;21.00;26.60;;;;;;5074589;28;19908;-54
2022/03/05 05:23:14;;;;;;;;;;;21.00;26.60;;;;;;5065308;28;19929;-50
2022/03/05 05:25:40;;;;;;;;;;;21.00;26.60;;;;;;5072786;28;19955;-51
2022/03/05 05:28:05;;;;;;;;;;;21.00;26.60;;;;;;5074723;28;19919;-54
2022/03/05 05:30:31;;;;;;;;;;;21.00;26.60;;;;;;5075095;28;19919;-51
2022/03/05 05:32:57;;;;;;;;;;;21.00;26.60;;;;;;5068740;28;19909;-52
2022/03/05 05:35:22;;;;;;;;;;;21.00;26.60;;;;;;5070578;28;19944;-49
2022/03/05 05:37:49;;;;;;;;;;;21.00;26.50;;;;;;5075537;28;19974;-52
2022/03/05 05:40:14;;;;;;;;;;;21.00;26.50;;;;;;5073933;28;19912;-48
2022/03/05 05:42:41;;;;;;;;;;;21.00;26.50;;;;;;5075005;28;20340;-53
2022/03/05 05:45:07;;;;;;;;;;;21.00;27.00;;;;;;5075150;28;19930;-53
2022/03/05 05:47:33;;;;;;;;;;;21.00;26.50;;;;;;5074486;28;20339;-49
2022/03/05 05:49:59;;;;;;;;;;;20.90;26.50;;;;;;5074640;28;19916;-52
2022/03/05 05:52:24;;;;;;;;;;;20.90;26.50;;;;;;5064469;28;19920;-52
2022/03/05 05:54:50;;;;;;;;;;;20.90;26.50;;;;;;5064441;28;20227;-48
2022/03/05 05:57:16;;;;;;;;;;;20.90;26.50;;;;;;5074430;28;20303;-54
2022/03/05 05:59:41;;;;;;;;;;;20.90;26.50;;;;;;5074821;28;19948;-53
2022/03/05 06:02:07;;;;;;;;;;;20.90;26.50;;;;;;5058438;28;19920;-52
2022/03/05 06:04:32;;;;;;;;;;;20.90;26.50;;;;;;5063382;28;19916;-48
2022/03/05 06:06:58;;;;;;;;;;;20.90;26.50;;;;;;5074609;28;19908;-54
2022/03/05 06:09:24;;;;;;;;;;;20.90;26.50;;;;;;5074734;28;19908;-52
2022/03/05 06:11:50;;;;;;;;;;;20.90;26.50;;;;;;5074342;28;20335;-53
2022/03/05 06:14:15;;;;;;;;;;;20.90;26.50;;;;;;5072423;28;19912;-50
2022/03/05 06:16:42;;;;;;;;;;;20.90;26.50;;;;;;5068082;28;19908;-53
2022/03/05 06:19:08;;;;;;;;;;;20.90;26.50;;;;;;5067317;28;19995;-47
2022/03/05 06:21:34;;;;;;;;;;;20.90;26.50;;;;;;5073552;28;20217;-54
2022/03/05 06:23:59;;;;;;;;;;;20.90;26.50;;;;;;5073818;28;19928;-51
2022/03/05 06:26:27;;;;;;;;;;;20.80;26.50;;;;;;5064613;28;19913;-53
2022/03/05 06:28:54;;;;;;;;;;;20.80;26.50;;;;;;5070883;28;19927;-54
2022/03/05 06:31:20;;;;;;;;;;;20.80;26.50;;;;;;5054947;28;19991;-49
2022/03/05 06:33:45;;;;;;;;;;;20.80;26.50;;;;;;5066784;28;19951;-51
2022/03/05 06:36:11;;;;;;;;;;;20.80;26.50;;;;;;5055429;28;19931;-54
2022/03/05 06:38:37;;;;;;;;;;;20.80;26.50;;;;;;5068096;28;19921;-51
2022/03/05 06:41:02;;;;;;;;;;;20.80;26.50;;;;;;5074989;28;19994;-54
2022/03/05 06:43:28;;;;;;;;;;;20.80;26.50;;;;;;5073868;28;19935;-54
2022/03/05 06:45:54;;;;;;;;;;;20.80;26.50;;;;;;5074246;28;20327;-47
2022/03/05 06:48:20;;;;;;;;;;;20.80;26.50;;;;;;5072983;28;19920;-53
2022/03/05 06:50:45;;;;;;;;;;;20.80;26.50;;;;;;5069134;28;19913;-52
2022/03/05 06:53:11;;;;;;;;;;;20.80;26.60;;;;;;5062083;28;20319;-53
2022/03/05 06:55:37;;;;;;;;;;;20.80;26.50;;;;;;5070470;28;19909;-54
2022/03/05 06:58:03;;;;;;;;;;;20.80;26.50;;;;;;5065589;28;19929;-50
2022/03/05 07:00:28;;;;;;;;;;;20.80;26.50;;;;;;5070514;28;19908;-52
2022/03/05 07:02:54;;;;;;;;;;;20.80;26.50;;;;;;5060999;28;19917;-55
2022/03/05 07:05:20;;;;;;;;;;;20.80;26.50;;;;;;5058518;28;19909;-57
2022/03/05 07:07:45;;;;;;;;;;;20.80;26.50;;;;;;5066106;28;20339;-45
2022/03/05 07:10:11;;;;;;;;;;;20.80;26.60;;;;;;5078628;28;20277;-47
2022/03/05 07:12:37;;;;;;;;;;;20.80;26.60;;;;;;5075048;28;19909;-55
2022/03/05 07:15:03;;;;;;;;;;;20.80;26.60;;;;;;5058832;28;20253;-52
2022/03/05 07:17:29;;;;;;;;;;;20.80;26.60;;;;;;5072108;28;19932;-53
2022/03/05 07:19:55;;;;;;;;;;;20.70;26.60;;;;;;5078477;28;19912;-57
2022/03/05 07:22:21;;;;;;;;;;;20.70;26.60;;;;;;5075737;28;19908;-48
2022/03/05 07:24:47;;;;;;;;;;;20.80;26.60;;;;;;5078568;28;19912;-52
2022/03/05 07:27:12;;;;;;;;;;;20.70;26.60;;;;;;5068297;28;20235;-55
2022/03/05 07:29:38;;;;;;;;;;;20.70;26.60;;;;;;5078108;28;19920;-50
2022/03/05 07:32:04;;;;;;;;;;;20.70;26.60;;;;;;5065498;28;19920;-54
2022/03/05 07:34:30;;;;;;;;;;;20.80;26.60;;;;;;5078423;28;19916;-57
2022/03/05 07:36:56;;;;;;;;;;;20.70;26.60;;;;;;5076292;28;19912;-56
2022/03/05 07:39:22;;;;;;;;;;;20.70;26.60;;;;;;5065596;28;20008;-52
2022/03/05 07:41:48;;;;;;;;;;;20.70;26.60;;;;;;5076953;28;19999;-52
2022/03/05 07:44:17;;;;;;;;;;;20.70;26.60;;;;;;5073772;28;19975;-53
2022/03/05 07:46:43;;;;;;;;;;;20.70;26.60;;;;;;5076441;28;19970;-51
2022/03/05 07:49:15;;;;;;;;;;;20.70;26.60;;;;;;5067744;28;19913;-52
2022/03/05 07:51:41;;;;;;;;;;;20.70;26.60;;;;;;5077309;28;20007;-54
2022/03/05 07:54:06;;;;;;;;;;;20.70;26.60;;;;;;5062157;28;19979;-55
2022/03/05 07:56:32;;;;;;;;;;;20.80;26.60;;;;;;5075383;28;20256;-56
2022/03/05 07:58:58;;;;;;;;;;;20.80;26.60;;;;;;5063343;28;19962;-59
2022/03/05 08:01:24;;;;;;;;;;;20.80;26.60;;;;;;5076280;28;19909;-57
2022/03/05 08:03:50;;;;;;;;;;;20.80;26.60;;;;;;5067345;28;19917;-58
2022/03/05 08:06:22;;;;;;;;;;;20.80;26.60;;;;;;5057571;28;19909;-54
2022/03/05 08:08:48;;;;;;;;;;;20.80;26.60;;;;;;5057372;28;19970;-49
2022/03/05 08:11:13;;;;;;;;;;;20.90;26.60;;;;;;5057225;28;20213;-54
2022/03/05 08:13:39;;;;;;;;;;;20.90;26.50;;;;;;5063634;28;19908;-57
2022/03/05 08:16:05;;;;;;;;;;;21.00;26.50;;;;;;5071763;28;20041;-55
2022/03/05 08:18:30;;;;;;;;;;;21.00;26.50;;;;;;5068450;28;20324;-55
2022/03/05 08:20:56;;;;;;;;;;;21.00;26.50;;;;;;5071379;28;19909;-57
2022/03/05 08:23:21;;;;;;;;;;;21.00;26.40;;;;;;5077242;28;19912;-57
2022/03/05 08:25:47;;;;;;;;;;;21.10;26.50;;;;;;5076912;28;20057;-50
2022/03/05 08:28:13;;;;;;;;;;;21.10;26.50;;;;;;5075966;28;19908;-54
2022/03/05 08:30:40;;;;;;;;;;;21.10;26.40;;;;;;5076980;28;19908;-52
2022/03/05 08:33:05;;;;;;;;;;;21.10;26.40;;;;;;5073461;28;19917;-56
2022/03/05 08:35:31;;;;;;;;;;;21.20;26.50;;;;;;5063774;28;19919;-51
2022/03/05 08:37:57;;;;;;;;;;;21.20;26.50;;;;;;5076104;28;20042;-56
2022/03/05 08:40:23;;;;;;;;;;;21.20;26.50;;;;;;5077087;28;19999;-54
2022/03/05 08:42:49;;;;;;;;;;;21.20;26.60;;;;;;5075915;28;19919;-54
2022/03/05 08:45:15;;;;;;;;;;;21.20;26.70;;;;;;5071146;28;19912;-55
2022/03/05 08:47:41;;;;;;;;;;;21.20;26.70;;;;;;5056860;28;19905;-56
2022/03/05 08:50:07;;;;;;;;;;;21.30;26.70;;;;;;5056446;28;19909;-52
2022/03/05 08:52:36;;;;;;;;;;;21.30;26.70;;;;;;5056819;28;20272;-56
2022/03/05 08:55:06;;;;;;;;;;;21.30;26.60;;;;;;5059839;28;19925;-54
2022/03/05 08:57:32;;;;;;;;;;;21.30;26.60;;;;;;5075311;28;19927;-57
2022/03/05 08:59:57;;;;;;;;;;;21.30;26.60;;;;;;5076062;28;19920;-55
2022/03/05 09:02:23;;;;;;;;;;;21.30;26.60;;;;;;5076534;28;19908;-54
2022/03/05 09:04:49;;;;;;;;;;;21.30;26.60;;;;;;5073985;28;20368;-56
2022/03/05 09:07:14;;;;;;;;;;;21.30;26.60;;;;;;5063758;28;19909;-54
2022/03/05 09:09:40;;;;;;;;;;;21.30;26.60;;;;;;5060012;28;19991;-52
2022/03/05 09:12:06;;;;;;;;;;;21.30;26.60;;;;;;5063136;28;19924;-56
2022/03/05 09:14:31;;;;;;;;;;;21.30;26.60;;;;;;5073087;28;19999;-57
2022/03/05 09:16:58;;;;;;;;;;;21.30;26.50;;;;;;5068471;28;20316;-52
2022/03/05 09:19:23;;;;;;;;;;;21.30;26.50;;;;;;5069549;28;19962;-55
2022/03/05 09:21:49;;;;;;;;;;;21.30;26.40;;;;;;5066853;28;19952;-53
2022/03/05 09:24:21;;;;;;;;;;;21.30;26.50;;;;;;5059191;28;19971;-50
2022/03/05 09:26:47;;;;;;;;;;;21.30;26.40;;;;;;5063581;28;19982;-58
2022/03/05 09:29:13;;;;;;;;;;;21.30;26.40;;;;;;5057048;28;19920;-51
2022/03/05 09:31:39;;;;;;;;;;;21.30;26.40;;;;;;5062206;28;19908;-53
2022/03/05 09:34:05;;;;;;;;;;;21.30;26.30;;;;;;5061407;28;19908;-57
2022/03/05 09:36:31;;;;;;;;;;;21.30;26.30;;;;;;5058388;28;19920;-53
2022/03/05 09:38:57;;;;;;;;;;;21.30;26.30;;;;;;5055082;28;19927;-49
2022/03/05 09:41:23;;;;;;;;;;;21.30;26.30;;;;;;5053180;28;19921;-60
2022/03/05 09:43:50;;;;;;;;;;;21.30;26.30;;;;;;5061655;28;20003;-54
2022/03/05 09:46:20;;;;;;;;;;;21.30;26.30;;;;;;5056102;28;19920;-51
2022/03/05 09:48:45;;;;;;;;;;;21.30;26.20;;;;;;5070515;28;19932;-55
2022/03/05 09:51:11;;;;;;;;;;;21.30;26.20;;;;;;5061572;28;19909;-52
2022/03/05 09:53:37;;;;;;;;;;;21.30;26.20;;;;;;5056180;28;19909;-51
2022/03/05 09:56:02;;;;;;;;;;;21.30;26.20;;;;;;5061858;28;19958;-58
2022/03/05 09:58:28;;;;;;;;;;;21.30;26.20;;;;;;5056090;28;19974;-58
2022/03/05 10:00:54;;;;;;;;;;;21.30;26.20;;;;;;5057687;28;19909;-53
2022/03/05 10:03:22;;;;;;;;;;;21.30;26.20;;;;;;5066803;28;19917;-56
2022/03/05 10:05:48;;;;;;;;;;;21.30;26.20;;;;;;5071850;28;20015;-56
2022/03/05 10:08:20;;;;;;;;;;;21.30;26.30;;;;;;5074821;28;19908;-54
2022/03/05 10:10:48;;;;;;;;;;;21.30;26.20;;;;;;5075509;28;19912;-53
2022/03/05 10:13:31;;;;;;;;;;;21.30;26.30;;;;;;5075057;28;20381;-57
2022/03/05 10:16:03;;;;;;;;;;;21.30;26.20;;;;;;5074650;28;19919;-57
2022/03/05 10:18:30;;;;;;;;;;;21.30;26.20;;;;;;5075274;28;19908;-52
2022/03/05 10:20:57;;;;;;;;;;;21.30;26.20;;;;;;5071916;28;19990;-54
2022/03/05 10:23:24;;;;;;;;;;;21.30;26.20;;;;;;5067154;28;19916;-55
2022/03/05 10:25:50;;;;;;;;;;;21.30;26.20;;;;;;5067311;28;20416;-49
2022/03/05 10:28:18;;;;;;;;;;;21.30;26.20;;;;;;5062786;28;19923;-54
2022/03/05 10:30:45;;;;;;;;;;;21.30;26.20;;;;;;5069298;28;19913;-52
2022/03/05 10:33:24;;;;;;;;;;;21.30;26.20;;;;;;5062981;28;19931;-52
2022/03/05 10:35:50;;;;;;;;;;;21.30;26.20;;;;;;5068450;28;20301;-57
2022/03/05 10:38:16;;;;;;;;;;;21.30;26.20;;;;;;5073141;28;20015;-57
2022/03/05 10:40:42;;;;;;;;;;;21.30;26.20;;;;;;5075197;28;19970;-53
2022/03/05 10:43:08;;;;;;;;;;;21.30;26.20;;;;;;5072932;28;20270;-52
2022/03/05 10:46:03;;;;;;;;;;;21.30;26.20;;;;;;5081942;28;19920;-54
2022/03/05 10:48:32;;;;;;;;;;;21.30;26.20;;;;;;5070188;28;19970;-55
2022/03/05 10:50:58;;;;;;;;;;;21.30;26.20;;;;;;5072021;28;20239;-51
2022/03/05 10:53:34;;;;;;;;;;;21.30;26.20;;;;;;5066088;28;20003;-56
2022/03/05 10:56:18;;;;;;;;;;;21.30;26.20;;;;;;5063045;28;19909;-51
2022/03/05 10:58:44;;;;;;;;;;;21.30;26.20;;;;;;5071861;28;20382;-51
2022/03/05 11:01:10;;;;;;;;;;;21.30;26.20;;;;;;5069822;28;19913;-55
2022/03/05 11:03:36;;;;;;;;;;;21.30;26.20;;;;;;5073703;28;19924;-53
2022/03/05 11:06:01;;;;;;;;;;;21.30;26.20;;;;;;5065071;28;19961;-57
2022/03/05 11:08:27;;;;;;;;;;;21.30;26.20;;;;;;5057721;28;19917;-59
2022/03/05 11:10:53;;;;;;;;;;;21.30;26.20;;;;;;5059828;28;19995;-56
2022/03/05 11:13:19;;;;;;;;;;;21.30;26.30;;;;;;5073555;28;20054;-54
2022/03/05 11:15:45;;;;;;;;;;;21.40;26.40;;;;;;5075786;28;19919;-51
2022/03/05 11:18:11;;;;;;;;;;;21.50;26.60;;;;;;5070547;28;19991;-54
2022/03/05 11:20:36;;;;;;;;;;;21.50;26.70;;;;;;5068859;28;20019;-54
2022/03/05 11:23:03;;;;;;;;;;;21.60;26.80;;;;;;5076593;28;20231;-50
2022/03/05 11:25:31;;;;;;;;;;;21.60;26.80;;;;;;5074548;28;19913;-53
2022/03/05 11:27:57;;;;;;;;;;;21.60;26.80;;;;;;5079165;28;19966;-53
2022/03/05 11:30:24;;;;;;;;;;;21.60;26.70;;;;;;5073440;28;20283;-57
2022/03/05 11:32:49;;;;;;;;;;;21.70;26.80;;;;;;5086064;28;19908;-52
2022/03/05 11:35:20;;;;;;;;;;;21.60;26.70;;;;;;5070892;28;20299;-56
2022/03/05 11:37:47;;;;;;;;;;;21.60;26.60;;;;;;5065786;28;19919;-57
2022/03/05 11:40:33;;;;;;;;;;;21.60;26.70;;;;;;5062065;28;19932;-51
2022/03/05 11:43:19;;;;;;;;;;;21.60;26.60;;;;;;5070994;28;19982;-53
2022/03/05 11:45:49;;;;;;;;;;;21.60;26.60;;;;;;5072866;28;19936;-53
2022/03/05 11:48:25;;;;;;;;;;;21.60;26.60;;;;;;5064473;28;20235;-51
2022/03/05 11:50:51;;;;;;;;;;;21.60;26.50;;;;;;5066815;28;19908;-51
2022/03/05 11:53:17;;;;;;;;;;;21.60;26.50;;;;;;5077031;28;20027;-50
2022/03/05 11:55:44;;;;;;;;;;;21.60;26.50;;;;;;5077093;28;19995;-53
2022/03/05 11:58:14;;;;;;;;;;;21.60;26.50;;;;;;5079167;28;19922;-56
2022/03/05 12:00:46;;;;;;;;;;;21.60;26.50;;;;;;5069724;28;19912;-54
2022/03/05 12:03:21;;;;;;;;;;;21.50;26.50;;;;;;5077607;28;19923;-49
2022/03/05 12:05:47;;;;;;;;;;;21.60;26.80;;;;;;5087865;28;19909;-54
2022/03/05 12:08:22;;;;;;;;;;;21.60;27.00;;;;;;5075529;28;20053;-57
2022/03/05 12:11:20;;;;;;;;;;;21.60;27.10;;;;;;5081510;28;19919;-47
2022/03/05 12:13:49;;;;;;;;;;;21.70;27.30;;;;;;5053918;28;19923;-50
2022/03/05 12:16:18;;;;;;;;;;;21.70;27.40;;;;;;5076884;28;20096;-56
2022/03/05 12:18:44;;;;;;;;;;;21.80;27.50;;;;;;5066926;28;19932;-53
2022/03/05 12:21:09;;;;;;;;;;;21.80;27.50;;;;;;5083553;28;19912;-53
2022/03/05 12:23:35;;;;;;;;;;;21.80;27.50;;;;;;5078403;28;19925;-52
2022/03/05 12:26:02;;;;;;;;;;;21.80;27.60;;;;;;5073308;28;20367;-51
2022/03/05 12:28:30;;;;;;;;;;;21.90;27.70;;;;;;5075349;28;19913;-50
2022/03/05 12:30:58;;;;;;;;;;;21.90;27.70;;;;;;5087836;28;19908;-55
2022/03/05 12:33:24;;;;;;;;;;;22.00;27.70;;;;;;5074214;28;19913;-52
2022/03/05 12:35:50;;;;;;;;;;;22.00;27.70;;;;;;5077111;28;19991;-49
2022/03/05 12:38:20;;;;;;;;;;;22.00;27.70;;;;;;5075140;28;20057;-48
2022/03/05 12:40:46;;;;;;;;;;;22.10;27.70;;;;;;5079231;28;19923;-51
2022/03/05 12:43:11;;;;;;;;;;;22.10;27.70;;;;;;5076396;28;20436;-48
2022/03/05 12:45:40;;;;;;;;;;;22.10;27.70;;;;;;5082543;28;20343;-53
2022/03/05 12:48:13;;;;;;;;;;;22.10;27.60;;;;;;5079835;28;19912;-52
2022/03/05 12:50:40;;;;;;;;;;;22.20;27.70;;;;;;5076019;28;20399;-49
2022/03/05 12:53:07;;;;;;;;;;;22.20;27.60;;;;;;5077812;28;20041;-53
2022/03/05 12:55:42;;;;;;;;;;;22.20;27.60;;;;;;5065855;28;20382;-51
2022/03/05 12:58:13;;;;;;;;;;;22.30;27.60;;;;;;5076033;28;19936;-51
2022/03/05 13:00:39;;;;;;;;;;;22.20;27.50;;;;;;5074599;28;19919;-53
2022/03/05 13:03:06;;;;;;;;;;;22.30;27.50;;;;;;5072622;28;20446;-53
2022/03/05 13:05:31;;;;;;;;;;;22.30;27.40;;;;;;5071719;28;19921;-53
2022/03/05 13:08:12;;;;;;;;;;;22.30;27.40;;;;;;4992378;27;2041592;-54
2022/03/05 13:10:37;;;;;;;;;;;22.30;27.30;;;;;;5064214;28;19920;-55
2022/03/05 13:13:04;;;;;;;;;;;22.30;27.30;;;;;;5060834;28;19993;-53
2022/03/05 13:15:31;;;;;;;;;;;22.30;27.20;;;;;;5061289;28;19909;-52
2022/03/05 13:18:10;;;;;;;;;;;22.20;27.20;;;;;;5062665;28;20264;-55
2022/03/05 13:20:36;;;;;;;;;;;22.20;27.20;;;;;;5064610;28;20340;-50
2022/03/05 13:23:03;;;;;;;;;;;22.20;27.20;;;;;;5058544;28;19917;-50
2022/03/05 13:25:29;;;;;;;;;;;22.20;27.30;;;;;;5059520;28;19909;-49
2022/03/05 13:27:55;;;;;;;;;;;22.20;27.40;;;;;;5062617;28;19921;-51
2022/03/05 13:30:26;;;;;;;;;;;22.30;27.50;;;;;;5055140;28;20210;-53
2022/03/05 13:32:52;;;;;;;;;;;22.30;27.50;;;;;;5061560;28;19974;-49
2022/03/05 13:35:18;;;;;;;;;;;22.30;27.50;;;;;;5060910;28;20343;-52
2022/03/05 13:37:47;;;;;;;;;;;22.40;27.50;;;;;;5064043;28;19919;-48
2022/03/05 13:40:14;;;;;;;;;;;22.40;27.40;;;;;;5058838;28;19912;-52
2022/03/05 13:42:40;;;;;;;;;;;22.40;27.40;;;;;;5057926;28;19913;-48
2022/03/05 13:45:10;;;;;;;;;;;22.40;27.50;;;;;;5061317;28;20328;-52
2022/03/05 13:47:43;;;;;;;;;;;22.50;27.60;;;;;;5058729;28;19975;-53
2022/03/05 13:50:10;;;;;;;;;;;22.50;27.70;;;;;;5047324;28;19909;-51
2022/03/05 13:52:35;;;;;;;;;;;22.50;27.70;;;;;;5059054;28;19925;-52
2022/03/05 13:55:06;;;;;;;;;;;22.60;27.70;;;;;;5061405;28;19923;-56
2022/03/05 13:57:32;;;;;;;;;;;22.60;27.70;;;;;;5055953;28;20325;-51
2022/03/05 14:00:09;;;;;;;;;;;22.60;27.70;;;;;;5060184;28;20454;-56
2022/03/05 14:02:38;;;;;;;;;;;22.70;27.60;;;;;;5062031;28;19920;-55
2022/03/05 14:05:11;;;;;;;;;;;22.70;27.50;;;;;;5060923;28;19977;-53
2022/03/05 14:07:38;;;;;;;;;;;22.70;27.50;;;;;;5054952;28;20225;-52
2022/03/05 14:10:04;;;;;;;;;;;22.70;27.40;;;;;;5053815;28;19912;-57
2022/03/05 14:12:30;;;;;;;;;;;22.70;27.30;;;;;;5059187;28;19931;-53
2022/03/05 14:15:00;;;;;;;;;;;22.60;27.20;;;;;;5055993;28;21530;-54
2022/03/05 14:17:26;;;;;;;;;;;22.60;27.20;;;;;;5064135;28;20333;-53